KAYS/AYS METAR and TAF weather

Enter ICAO airport designator
Station Type Date Time Source
KAYS METAR 2018/04/21 20:55 UTC NOAA

KAYS 212055Z AUTO 08009G14KT 10SM BKN013 BKN033 OVC070 19/17 A3023 RMK AO2 T01880172


Station Type Date Time Source
KAYS Decoded METAR 2018/04/21 20:55 UTC NOAA

Waycross / Ware County, Ga, GA, United States (KAYS) 31-15N 082-24W 46M
Apr 21, 2018 - 04:55 PM EDT / 2018.04.21 2055 UTC
Wind: from the E (080 degrees) at 10 MPH (9 KT) gusting to 16 MPH (14 KT):0
Visibility: 10 mile(s):0
Sky conditions: overcast
Temperature: 65.8 F (18.8 C)
Dew Point: 63.0 F (17.2 C)
Relative Humidity: 90%
Pressure (altimeter): 30.23 in. Hg (1023 hPa)
ob: KAYS 212055Z AUTO 08009G14KT 10SM BKN013 BKN033 OVC070 19/17 A3023 RMK AO2 T01880172
cycle: 21

Station Type Date Time Source
KAYS TAF UTC NOAA

Error!


Example: see airport list